createdAt,value
2022-08-21T00:03:20.073Z,23.90
2022-08-21T00:06:58.146Z,23.70
2022-08-21T00:09:28.230Z,23.50
2022-08-21T00:11:58.753Z,23.50
2022-08-21T00:14:28.241Z,23.50
2022-08-21T00:17:00.139Z,23.50
2022-08-21T00:19:28.333Z,23.60
2022-08-21T00:24:39.885Z,23.50
2022-08-21T00:27:08.764Z,23.50
2022-08-21T00:29:38.927Z,23.50
2022-08-21T00:32:11.721Z,23.50
2022-08-21T00:34:39.149Z,23.40
2022-08-21T00:40:24.832Z,23.40
2022-08-21T00:46:08.389Z,23.40
2022-08-21T00:48:39.720Z,23.40
2022-08-21T00:51:32.802Z,23.40
2022-08-21T00:54:44.134Z,23.40
2022-08-21T01:01:19.837Z,23.30
2022-08-21T01:03:50.221Z,23.30
2022-08-21T01:06:41.908Z,23.30
2022-08-21T01:09:10.052Z,23.30
2022-08-21T01:11:38.076Z,23.30
2022-08-21T01:17:22.588Z,23.20
2022-08-21T01:19:50.066Z,23.20
2022-08-21T01:25:57.065Z,23.00
2022-08-21T01:28:29.892Z,22.90
2022-08-21T01:34:50.745Z,23.00
2022-08-21T01:43:50.368Z,22.90
2022-08-21T01:46:18.249Z,22.90
2022-08-21T01:48:50.493Z,22.90
2022-08-21T01:51:21.588Z,22.80
2022-08-21T01:54:16.060Z,22.60
2022-08-21T01:56:44.758Z,22.50
2022-08-21T01:59:17.726Z,22.50
2022-08-21T02:01:58.963Z,22.60
2022-08-21T02:04:31.781Z,22.60
2022-08-21T02:07:04.185Z,22.60
2022-08-21T02:10:00.274Z,22.60
2022-08-21T02:12:32.974Z,22.60
2022-08-21T02:15:00.445Z,22.60
2022-08-21T02:21:33.359Z,22.50
2022-08-21T02:24:10.574Z,22.50
2022-08-21T02:34:10.154Z,22.60
2022-08-21T02:36:39.403Z,22.60
2022-08-21T02:39:08.296Z,22.60
2022-08-21T02:42:06.329Z,22.60
2022-08-21T02:44:36.334Z,22.70
2022-08-21T02:50:26.805Z,22.60
2022-08-21T02:53:20.863Z,22.50
2022-08-21T02:55:51.514Z,22.50
2022-08-21T03:05:48.775Z,22.60
2022-08-21T03:08:22.706Z,22.60
2022-08-21T03:11:23.624Z,22.50
2022-08-21T03:13:51.032Z,22.50
2022-08-21T03:16:19.710Z,22.50
2022-08-21T03:18:50.050Z,22.50
2022-08-21T03:21:20.008Z,22.50
2022-08-21T03:23:49.837Z,22.50
2022-08-21T03:26:20.319Z,22.60
2022-08-21T03:29:02.081Z,22.50
2022-08-21T03:32:48.812Z,22.60
2022-08-21T03:35:27.038Z,22.60
2022-08-21T03:41:01.053Z,22.40
2022-08-21T03:44:08.984Z,22.30
2022-08-21T03:47:01.291Z,22.30
2022-08-21T03:49:30.021Z,22.30
2022-08-21T03:51:59.731Z,22.20
2022-08-21T03:54:39.019Z,22.20
2022-08-21T03:57:22.378Z,22.20
2022-08-21T03:59:50.325Z,22.10
2022-08-21T04:02:29.306Z,22.10
2022-08-21T04:04:59.251Z,22.10
2022-08-21T04:07:26.908Z,22.10
2022-08-21T04:09:54.441Z,22.10
2022-08-21T04:12:31.254Z,22.00
2022-08-21T04:15:21.257Z,22.10
2022-08-21T04:17:51.268Z,22.10
2022-08-21T04:20:19.837Z,22.10
2022-08-21T04:26:00.499Z,22.10
2022-08-21T04:28:31.246Z,22.10
2022-08-21T04:31:38.241Z,22.10
2022-08-21T04:34:10.501Z,22.20
2022-08-21T04:36:47.914Z,22.20
2022-08-21T04:39:22.527Z,22.20
2022-08-21T04:42:49.030Z,22.20
2022-08-21T04:46:01.994Z,22.20
2022-08-21T04:48:32.135Z,22.20
2022-08-21T04:51:41.124Z,22.20
2022-08-21T04:54:20.364Z,22.20
2022-08-21T04:57:12.323Z,22.30
2022-08-21T04:59:52.332Z,22.30
2022-08-21T05:02:33.209Z,22.20
2022-08-21T05:05:11.631Z,22.20
2022-08-21T05:08:00.800Z,22.20
2022-08-21T05:10:55.963Z,22.20
2022-08-21T05:13:42.812Z,22.10
2022-08-21T05:23:50.481Z,22.10
2022-08-21T05:31:23.307Z,22.20
2022-08-21T05:33:50.748Z,22.30
2022-08-21T05:36:20.254Z,22.20
2022-08-21T05:42:02.241Z,22.20
2022-08-21T05:44:29.781Z,22.30
2022-08-21T05:51:19.912Z,22.40
2022-08-21T05:53:48.815Z,22.50
2022-08-21T05:56:19.450Z,22.50
2022-08-21T05:59:02.255Z,22.60
2022-08-21T06:12:45.408Z,23.20
2022-08-21T06:15:13.132Z,23.50
2022-08-21T06:17:40.588Z,24.00
2022-08-21T06:25:10.061Z,25.20
2022-08-21T06:27:40.113Z,26.20
2022-08-21T06:30:34.426Z,26.90
2022-08-21T06:33:08.103Z,27.40
2022-08-21T06:48:19.198Z,29.50
2022-08-21T06:50:59.523Z,29.80
2022-08-21T07:18:29.993Z,31.60
2022-08-21T07:25:14.717Z,31.40
2022-08-21T07:30:40.300Z,31.90
2022-08-21T07:33:10.245Z,32.00
2022-08-21T07:36:28.822Z,32.20
2022-08-21T07:39:00.565Z,32.30
2022-08-21T07:41:31.051Z,32.50
2022-08-21T07:43:59.636Z,32.70
2022-08-21T07:46:31.522Z,32.70
2022-08-21T07:49:33.394Z,32.90
2022-08-21T07:52:10.519Z,32.80
2022-08-21T08:06:53.150Z,33.70
2022-08-21T08:09:48.023Z,33.90
2022-08-21T08:19:42.158Z,33.90
2022-08-21T08:23:26.030Z,34.10
2022-08-21T08:35:41.450Z,33.60
2022-08-21T08:54:50.315Z,34.50
2022-08-21T09:16:00.971Z,35.10
2022-08-21T09:32:51.195Z,35.20
2022-08-21T09:36:12.004Z,35.20
2022-08-21T09:38:39.544Z,35.30
2022-08-21T09:42:00.201Z,34.90
2022-08-21T09:44:30.561Z,34.80
2022-08-21T09:47:55.828Z,34.40
2022-08-21T09:54:19.748Z,34.90
2022-08-21T09:57:46.678Z,34.80
2022-08-21T10:00:39.765Z,34.90
2022-08-21T10:03:16.223Z,34.90
2022-08-21T10:10:14.207Z,34.90
2022-08-21T10:17:09.906Z,33.80
2022-08-21T10:19:49.225Z,33.80
2022-08-21T10:23:26.620Z,33.80
2022-08-21T10:26:14.624Z,34.00
2022-08-21T10:28:50.474Z,34.40
2022-08-21T10:31:29.623Z,34.60
2022-08-21T10:34:43.774Z,34.70
2022-08-21T10:40:23.761Z,34.60
2022-08-21T10:43:56.260Z,34.50
2022-08-21T10:46:43.522Z,34.10
2022-08-21T10:49:48.526Z,33.80
2022-08-21T10:53:07.389Z,33.60
2022-08-21T10:59:46.675Z,33.50
2022-08-21T11:02:39.839Z,33.60
2022-08-21T11:05:24.211Z,33.50
2022-08-21T11:08:14.461Z,33.60
2022-08-21T11:10:59.268Z,33.60
2022-08-21T11:18:38.868Z,33.30
2022-08-21T11:25:16.887Z,33.00
2022-08-21T11:28:08.767Z,32.90
2022-08-21T11:34:07.866Z,33.00
2022-08-21T11:37:07.386Z,32.90
2022-08-21T11:40:27.508Z,32.90
2022-08-21T11:43:20.761Z,32.70
2022-08-21T11:45:55.379Z,32.50
2022-08-21T11:52:49.991Z,32.30
2022-08-21T12:00:08.573Z,32.50
2022-08-21T12:03:10.719Z,32.70
2022-08-21T12:05:42.197Z,32.60
2022-08-21T12:08:36.778Z,32.70
2022-08-21T12:11:10.860Z,32.80
2022-08-21T12:17:54.982Z,32.70
2022-08-21T12:20:22.419Z,32.60
2022-08-21T12:23:38.970Z,32.50
2022-08-21T12:26:41.698Z,32.50
2022-08-21T12:29:36.990Z,32.50
2022-08-21T12:32:25.824Z,32.40
2022-08-21T12:35:07.345Z,32.50
2022-08-21T12:41:05.575Z,32.50
2022-08-21T12:43:49.777Z,32.60
2022-08-21T12:50:10.008Z,32.50
2022-08-21T12:53:20.471Z,32.50
2022-08-21T12:55:48.748Z,32.40
2022-08-21T12:58:24.612Z,32.30
2022-08-21T13:01:29.901Z,32.20
2022-08-21T13:04:35.284Z,32.30
2022-08-21T13:07:16.148Z,32.30
2022-08-21T13:13:12.645Z,32.30
2022-08-21T13:15:47.569Z,32.40
2022-08-21T13:18:28.547Z,32.50
2022-08-21T13:27:36.532Z,32.20
2022-08-21T13:30:08.121Z,32.20
2022-08-21T13:32:39.714Z,32.20
2022-08-21T13:35:36.997Z,32.30
2022-08-21T13:38:09.549Z,32.40
2022-08-21T13:40:43.982Z,32.50
2022-08-21T13:43:28.095Z,32.50
2022-08-21T13:45:57.342Z,32.50
2022-08-21T13:48:38.760Z,32.60
2022-08-21T13:51:39.046Z,32.60
2022-08-21T13:59:09.656Z,32.70
2022-08-21T14:02:09.114Z,32.60
2022-08-21T14:05:04.603Z,32.50
2022-08-21T14:08:20.393Z,32.40
2022-08-21T14:10:57.920Z,32.20
2022-08-21T14:13:55.986Z,32.20
2022-08-21T14:16:27.140Z,32.10
2022-08-21T14:19:25.508Z,32.10
2022-08-21T14:21:55.771Z,32.20
2022-08-21T14:27:33.908Z,32.20
2022-08-21T14:30:19.839Z,32.30
2022-08-21T14:35:50.720Z,32.30
2022-08-21T14:38:22.069Z,32.30
2022-08-21T14:41:04.904Z,32.30
2022-08-21T14:43:38.712Z,32.30
2022-08-21T14:47:08.573Z,32.30
2022-08-21T14:49:38.841Z,32.40
2022-08-21T14:52:06.403Z,32.30
2022-08-21T14:54:34.272Z,32.30
2022-08-21T14:57:08.600Z,32.30
2022-08-21T14:59:37.277Z,32.30
2022-08-21T15:02:06.077Z,32.40
2022-08-21T15:08:28.098Z,32.30
2022-08-21T15:11:48.892Z,32.20
2022-08-21T15:14:28.674Z,32.10
2022-08-21T15:16:59.230Z,32.20
2022-08-21T15:19:30.331Z,32.20
2022-08-21T15:22:06.307Z,32.20
2022-08-21T15:28:18.423Z,32.10
2022-08-21T15:30:55.170Z,32.20
2022-08-21T15:37:40.362Z,32.10
2022-08-21T15:46:06.775Z,32.20
2022-08-21T15:48:36.488Z,32.20
2022-08-21T15:55:19.360Z,32.20
2022-08-21T15:57:58.090Z,32.10
2022-08-21T16:04:27.977Z,31.90
2022-08-21T16:07:05.216Z,31.90
2022-08-21T16:10:01.922Z,31.90
2022-08-21T16:12:40.336Z,31.80
2022-08-21T16:15:10.960Z,31.80
2022-08-21T16:17:50.115Z,31.80
2022-08-21T16:21:26.878Z,31.70
2022-08-21T16:27:28.006Z,31.70
2022-08-21T16:30:26.584Z,31.60
2022-08-21T16:32:57.126Z,31.60
2022-08-21T16:35:56.139Z,31.60
2022-08-21T16:38:26.797Z,31.60
2022-08-21T16:40:58.887Z,31.60
2022-08-21T16:44:18.441Z,31.50
2022-08-21T16:50:50.899Z,31.50
2022-08-21T16:56:39.489Z,31.50
2022-08-21T16:59:07.904Z,31.40
2022-08-21T17:02:27.364Z,31.40
2022-08-21T17:04:54.779Z,31.30
2022-08-21T17:07:22.184Z,31.20
2022-08-21T17:09:49.609Z,31.20
2022-08-21T17:12:17.776Z,31.10
2022-08-21T17:14:45.283Z,31.10
2022-08-21T17:17:26.234Z,31.00
2022-08-21T17:20:09.376Z,31.00
2022-08-21T17:22:36.785Z,31.00
2022-08-21T17:25:30.497Z,30.90
2022-08-21T17:27:58.217Z,30.80
2022-08-21T17:30:26.016Z,30.80
2022-08-21T17:32:56.216Z,30.80
2022-08-21T17:35:28.699Z,30.70
2022-08-21T17:38:08.115Z,30.70
2022-08-21T17:40:36.437Z,30.60
2022-08-21T17:46:55.937Z,30.50
2022-08-21T17:49:23.473Z,30.50
2022-08-21T17:55:58.948Z,30.40
2022-08-21T18:04:39.393Z,30.10
2022-08-21T18:07:07.030Z,30.10
2022-08-21T18:09:38.937Z,30.00
2022-08-21T18:12:13.348Z,29.90
2022-08-21T18:15:18.458Z,29.80
2022-08-21T18:17:58.312Z,29.80
2022-08-21T18:20:28.518Z,29.70
2022-08-21T18:22:58.414Z,29.60
2022-08-21T18:25:27.418Z,29.60
2022-08-21T18:28:07.967Z,29.50
2022-08-21T18:32:03.174Z,29.30
2022-08-21T18:33:58.439Z,29.20
2022-08-21T18:36:29.689Z,28.70
2022-08-21T18:39:13.639Z,28.50
2022-08-21T18:42:14.008Z,28.40
2022-08-21T18:44:49.433Z,28.30
2022-08-21T18:47:28.723Z,28.20
2022-08-21T18:49:58.321Z,28.20
2022-08-21T18:52:28.385Z,28.00
2022-08-21T18:54:57.860Z,27.90
2022-08-21T18:57:29.596Z,27.90
2022-08-21T18:59:59.546Z,27.70
2022-08-21T19:02:31.184Z,27.70
2022-08-21T19:05:00.654Z,27.50
2022-08-21T19:07:30.548Z,27.50
2022-08-21T19:13:01.254Z,27.50
2022-08-21T19:15:29.803Z,27.50
2022-08-21T19:17:58.363Z,27.50
2022-08-21T19:20:35.026Z,27.50
2022-08-21T19:23:05.387Z,27.50
2022-08-21T19:25:51.959Z,27.40
2022-08-21T19:29:18.306Z,27.30
2022-08-21T19:31:48.247Z,27.30
2022-08-21T19:34:19.909Z,27.30
2022-08-21T19:36:49.437Z,27.30
2022-08-21T19:39:52.052Z,27.20
2022-08-21T19:42:28.668Z,27.20
2022-08-21T19:44:58.307Z,27.20
2022-08-21T19:47:29.509Z,27.10
2022-08-21T19:51:00.943Z,27.10
2022-08-21T19:53:28.372Z,27.00
2022-08-21T19:55:56.064Z,26.90
2022-08-21T19:58:38.770Z,26.90
2022-08-21T20:01:11.510Z,26.90
2022-08-21T20:03:53.735Z,27.10
2022-08-21T20:06:24.456Z,27.10
2022-08-21T20:08:54.716Z,27.00
2022-08-21T20:12:26.436Z,27.10
2022-08-21T20:16:34.061Z,27.20
2022-08-21T20:21:58.438Z,27.40
2022-08-21T20:24:28.384Z,27.40
2022-08-21T20:31:09.511Z,27.30
2022-08-21T20:33:58.613Z,27.20
2022-08-21T20:40:49.115Z,27.00
2022-08-21T20:44:29.769Z,27.00
2022-08-21T20:46:57.977Z,27.00
2022-08-21T20:49:31.275Z,27.00
2022-08-21T20:52:03.003Z,26.90
2022-08-21T20:55:00.234Z,27.00
2022-08-21T20:57:40.135Z,26.90
2022-08-21T21:00:15.124Z,26.90
2022-08-21T21:03:05.039Z,26.90
2022-08-21T21:05:59.987Z,26.90
2022-08-21T21:08:46.844Z,26.90
2022-08-21T21:11:35.596Z,26.90
2022-08-21T21:14:23.991Z,26.90
2022-08-21T21:17:00.018Z,26.90
2022-08-21T21:19:39.814Z,26.90
2022-08-21T21:23:03.957Z,26.90
2022-08-21T21:25:45.833Z,26.90
2022-08-21T21:28:43.136Z,26.80
2022-08-21T21:31:11.644Z,26.70
2022-08-21T21:33:40.568Z,26.70
2022-08-21T21:36:32.914Z,26.70
2022-08-21T21:39:07.241Z,26.70
2022-08-21T21:46:14.158Z,26.70
2022-08-21T21:49:27.938Z,26.70
2022-08-21T21:52:14.853Z,26.70
2022-08-21T22:07:44.200Z,26.70
2022-08-21T22:10:32.441Z,26.70
2022-08-21T22:19:57.452Z,26.90
2022-08-21T22:22:29.833Z,26.80
2022-08-21T22:37:48.813Z,26.70
2022-08-21T22:40:36.178Z,26.80
2022-08-21T22:43:18.258Z,26.80
2022-08-21T22:46:13.153Z,26.80
2022-08-21T22:48:54.069Z,26.70
2022-08-21T22:51:33.906Z,26.70
2022-08-21T22:54:02.486Z,26.70
2022-08-21T22:56:58.513Z,26.70
2022-08-21T22:59:34.901Z,26.60
2022-08-21T23:02:11.415Z,26.50
2022-08-21T23:04:48.828Z,26.50
2022-08-21T23:07:43.082Z,26.40
2022-08-21T23:14:07.263Z,26.20
2022-08-21T23:20:36.553Z,26.00
2022-08-21T23:23:21.343Z,25.90
2022-08-21T23:26:25.519Z,25.70
2022-08-21T23:28:55.797Z,25.70
2022-08-21T23:31:38.190Z,25.70
2022-08-21T23:34:25.503Z,25.70
2022-08-21T23:37:41.170Z,25.60
2022-08-21T23:40:50.622Z,25.60
2022-08-21T23:44:10.433Z,25.60
2022-08-21T23:47:24.402Z,25.60
2022-08-21T23:50:14.675Z,25.60
2022-08-21T23:52:54.202Z,25.60
2022-08-21T23:55:54.662Z,25.60
2022-08-21T23:59:10.212Z,25.70
